Time;durP1;ratioP1;P1;durP2;ratioP2;P2;SDS_P1;SDS_P2;PMS_P1;PMS_P2;Temp;Humidity;BMP_temperature;BMP_pressure;BME280_temperature;BME280_humidity;BME280_pressure;Samples;Min_cycle;Max_cycle;Signal;HPM_P1;HPM_P2
2023/08/17 00:01:34;;;;;;;1.00;0.90;;;21.10;98.00;;;;;;5010468;23;20485;-89
2023/08/17 00:04:01;;;;;;;0.60;0.60;;;21.20;98.10;;;;;;4945810;29;20501;-86
2023/08/17 00:06:29;;;;;;;0.90;0.90;;;21.10;98.10;;;;;;4946916;29;20452;-86
2023/08/17 00:08:59;;;;;;;1.23;1.13;;;21.00;98.10;;;;;;4956157;28;20476;-85
2023/08/17 00:11:26;;;;;;;1.63;1.53;;;21.20;97.90;;;;;;4951062;28;20536;-85
2023/08/17 00:13:56;;;;;;;1.37;1.27;;;21.20;97.70;;;;;;4955039;29;20472;-88
2023/08/17 00:16:26;;;;;;;1.17;1.07;;;21.30;98.00;;;;;;4956122;29;20666;-86
2023/08/17 00:18:53;;;;;;;0.90;0.90;;;21.00;98.00;;;;;;4946690;29;20454;-85
2023/08/17 00:21:27;;;;;;;0.90;0.90;;;21.10;98.10;;;;;;4949668;29;20469;-86
2023/08/17 00:23:56;;;;;;;0.80;0.80;;;21.10;98.30;;;;;;4954438;29;20875;-86
2023/08/17 00:26:27;;;;;;;0.70;0.70;;;21.10;98.50;;;;;;4951212;29;20416;-86
2023/08/17 00:28:54;;;;;;;1.20;1.10;;;21.30;98.40;;;;;;4944367;29;20513;-86
2023/08/17 00:31:23;;;;;;;0.60;0.60;;;21.10;98.60;;;;;;4952961;28;20435;-86
2023/08/17 00:33:50;;;;;;;2.20;1.80;;;21.10;98.70;;;;;;4955002;29;20448;-86
2023/08/17 00:36:17;;;;;;;0.70;0.70;;;21.10;98.70;;;;;;4952252;29;20753;-88
2023/08/17 00:38:45;;;;;;;1.23;1.17;;;21.30;98.60;;;;;;4949478;29;20425;-89
2023/08/17 00:41:12;;;;;;;3.63;1.60;;;21.30;99.10;;;;;;4951137;29;20466;-88
2023/08/17 00:43:41;;;;;;;0.97;0.97;;;21.50;98.50;;;;;;4956520;29;20464;-86
2023/08/17 00:46:11;;;;;;;1.00;1.00;;;21.40;98.20;;;;;;4946832;29;20456;-84
2023/08/17 00:48:39;;;;;;;0.73;0.73;;;21.50;97.20;;;;;;4947997;29;20492;-84
2023/08/17 00:51:06;;;;;;;0.90;0.90;;;21.10;96.90;;;;;;4950878;29;20488;-84
2023/08/17 00:53:33;;;;;;;1.53;1.43;;;20.80;97.00;;;;;;4945649;29;20481;-86
2023/08/17 00:56:06;;;;;;;1.00;0.90;;;20.70;96.80;;;;;;4944064;29;20530;-86
2023/08/17 00:58:33;;;;;;;0.80;0.80;;;20.80;96.40;;;;;;4949262;29;20479;-85
2023/08/17 01:01:00;;;;;;;1.30;1.20;;;20.80;97.00;;;;;;4957877;29;20492;-85
2023/08/17 01:03:31;;;;;;;1.43;1.33;;;20.60;99.90;;;;;;4949642;29;20409;-88
2023/08/17 01:05:58;;;;;;;1.40;1.33;;;19.90;99.90;;;;;;4953854;29;20989;-78
2023/08/17 01:08:25;;;;;;;0.97;0.97;;;19.50;99.90;;;;;;4948832;29;20420;-83
2023/08/17 01:11:25;;;;;;;0.80;0.80;;;19.20;99.90;;;;;;4959074;28;20465;-85
2023/08/17 01:14:06;;;;;;;0.90;0.90;;;19.10;99.90;;;;;;4950403;29;20448;-80
2023/08/17 01:16:45;;;;;;;0.80;0.80;;;18.90;99.90;;;;;;4945348;28;20762;-83
2023/08/17 01:19:18;;;;;;;0.70;0.70;;;18.80;99.90;;;;;;4943475;29;20447;-80
2023/08/17 01:21:50;;;;;;;0.67;0.67;;;18.80;99.90;;;;;;4946338;29;20501;-82
2023/08/17 01:24:17;;;;;;;0.93;0.90;;;18.80;99.90;;;;;;4940957;29;20451;-82
2023/08/17 01:26:44;;;;;;;1.00;1.00;;;19.00;99.90;;;;;;4945848;29;20457;-82
2023/08/17 01:29:11;;;;;;;0.80;0.80;;;19.00;99.90;;;;;;4944878;29;20592;-80
2023/08/17 01:31:52;;;;;;;1.10;1.10;;;19.00;99.90;;;;;;4948822;29;20445;-80
2023/08/17 01:34:23;;;;;;;0.90;0.87;;;18.90;99.90;;;;;;4943072;29;20604;-83
2023/08/17 01:36:58;;;;;;;0.70;0.70;;;18.70;99.90;;;;;;4948002;29;20437;-83
2023/08/17 01:39:36;;;;;;;1.13;1.03;;;18.60;99.90;;;;;;4943926;29;20820;-80
2023/08/17 01:42:04;;;;;;;1.00;1.00;;;18.70;99.90;;;;;;4940450;29;20420;-80
2023/08/17 01:44:32;;;;;;;1.87;1.77;;;18.70;99.90;;;;;;4942045;29;20458;-86
2023/08/17 01:46:59;;;;;;;0.63;0.63;;;18.60;99.90;;;;;;4946470;29;20482;-81
2023/08/17 01:49:26;;;;;;;0.80;0.80;;;18.60;99.90;;;;;;4950903;29;20661;-83
2023/08/17 01:51:53;;;;;;;1.47;1.10;;;18.60;99.90;;;;;;4941245;29;20429;-82
2023/08/17 01:54:20;;;;;;;1.83;1.20;;;18.60;99.90;;;;;;4945822;29;20985;-84
2023/08/17 01:56:47;;;;;;;0.50;0.50;;;18.50;99.90;;;;;;4949593;29;20466;-81
2023/08/17 01:59:14;;;;;;;0.83;0.80;;;18.60;99.90;;;;;;4949173;29;20434;-81
2023/08/17 02:01:41;;;;;;;0.60;0.60;;;18.40;99.90;;;;;;4955920;29;20452;-83
2023/08/17 02:04:08;;;;;;;1.00;0.97;;;18.40;99.90;;;;;;4955473;29;20434;-84
2023/08/17 02:06:35;;;;;;;0.67;0.67;;;18.50;99.90;;;;;;4953968;29;20413;-80
2023/08/17 02:09:02;;;;;;;1.57;1.47;;;18.50;99.90;;;;;;4952389;29;20413;-82
2023/08/17 02:11:31;;;;;;;0.90;0.90;;;18.40;99.90;;;;;;4953945;29;20578;-80
2023/08/17 02:13:58;;;;;;;0.70;0.70;;;18.40;99.90;;;;;;4951183;29;20441;-79
2023/08/17 02:16:25;;;;;;;0.93;0.93;;;18.40;99.90;;;;;;4959648;29;20446;-77
2023/08/17 02:18:52;;;;;;;6.80;2.87;;;18.40;99.90;;;;;;4946198;29;20497;-86
2023/08/17 02:21:19;;;;;;;1.80;1.70;;;18.50;99.90;;;;;;4942756;29;20474;-78
2023/08/17 02:23:46;;;;;;;1.00;1.00;;;18.50;99.90;;;;;;4941831;29;20485;-82
2023/08/17 02:26:13;;;;;;;0.50;0.50;;;18.40;99.90;;;;;;4943822;29;20539;-78
2023/08/17 02:28:40;;;;;;;0.80;0.80;;;18.40;99.90;;;;;;4951947;29;20540;-82
2023/08/17 02:31:07;;;;;;;1.00;1.00;;;18.30;99.90;;;;;;4941943;29;20702;-80
2023/08/17 02:33:36;;;;;;;1.47;1.37;;;18.40;99.90;;;;;;4945817;29;20484;-78
2023/08/17 02:36:04;;;;;;;1.30;1.20;;;18.30;99.90;;;;;;4942596;29;20705;-85
2023/08/17 02:38:33;;;;;;;0.77;0.77;;;18.30;99.90;;;;;;4941699;29;20792;-80
2023/08/17 02:41:00;;;;;;;2.17;2.07;;;18.20;99.90;;;;;;4939796;29;20448;-85
2023/08/17 02:43:27;;;;;;;0.70;0.70;;;18.30;99.90;;;;;;4935683;29;20454;-80
2023/08/17 02:45:54;;;;;;;1.57;1.47;;;18.20;99.90;;;;;;4939051;29;20484;-78
2023/08/17 02:48:21;;;;;;;1.83;1.73;;;18.20;99.90;;;;;;4944083;29;20445;-82
2023/08/17 02:50:48;;;;;;;0.87;0.87;;;18.20;99.90;;;;;;4949286;28;20460;-80
2023/08/17 02:53:15;;;;;;;0.60;0.60;;;18.20;99.90;;;;;;4937805;29;20477;-89
2023/08/17 02:55:42;;;;;;;0.87;0.87;;;18.20;99.90;;;;;;4933756;29;20513;-78
2023/08/17 02:58:09;;;;;;;0.83;0.83;;;18.40;99.90;;;;;;4947639;29;20696;-81
2023/08/17 03:00:36;;;;;;;0.70;0.70;;;18.20;99.90;;;;;;4940609;29;20458;-80
2023/08/17 03:03:06;;;;;;;0.90;0.90;;;18.20;99.90;;;;;;4939975;29;20767;-80
2023/08/17 03:05:33;;;;;;;1.07;1.07;;;18.10;99.90;;;;;;4941742;29;20452;-80
2023/08/17 03:08:01;;;;;;;0.77;0.77;;;18.10;99.90;;;;;;4939592;29;20482;-78
2023/08/17 03:10:28;;;;;;;1.87;1.77;;;18.10;99.90;;;;;;4947542;29;20427;-80
2023/08/17 03:12:54;;;;;;;0.67;0.67;;;18.10;99.90;;;;;;4944458;28;20510;-81
2023/08/17 03:15:23;;;;;;;0.80;0.80;;;18.10;99.90;;;;;;4932409;29;20576;-85
2023/08/17 03:17:50;;;;;;;0.67;0.67;;;18.00;99.90;;;;;;4938716;29;20820;-78
2023/08/17 03:20:17;;;;;;;1.13;0.87;;;18.10;99.90;;;;;;4955313;29;20445;-79
2023/08/17 03:22:44;;;;;;;1.03;1.00;;;18.10;99.90;;;;;;4951217;28;20795;-80
2023/08/17 03:25:11;;;;;;;0.70;0.70;;;18.00;99.90;;;;;;4943450;29;20481;-79
2023/08/17 03:27:38;;;;;;;1.53;1.43;;;17.90;99.90;;;;;;4941478;29;20439;-81
2023/08/17 03:30:05;;;;;;;1.43;1.33;;;17.90;99.90;;;;;;4937842;29;20517;-80
2023/08/17 03:32:33;;;;;;;1.23;1.20;;;17.90;99.90;;;;;;4944974;29;20789;-80
2023/08/17 03:35:00;;;;;;;0.60;0.60;;;17.90;99.90;;;;;;4943910;28;20490;-78
2023/08/17 03:37:27;;;;;;;1.00;1.00;;;18.00;99.90;;;;;;4939372;29;20478;-80
2023/08/17 03:39:54;;;;;;;1.83;1.73;;;17.80;99.90;;;;;;4934103;29;20454;-80
2023/08/17 03:42:21;;;;;;;0.60;0.60;;;17.90;99.90;;;;;;4938945;29;20442;-79
2023/08/17 03:44:48;;;;;;;0.50;0.50;;;17.90;99.90;;;;;;4940121;29;20461;-80
2023/08/17 03:47:15;;;;;;;1.00;1.00;;;17.90;99.90;;;;;;4940555;29;20446;-79
2023/08/17 03:49:43;;;;;;;0.83;0.80;;;17.90;99.90;;;;;;4939940;29;20478;-79
2023/08/17 03:52:10;;;;;;;1.80;1.70;;;17.80;99.90;;;;;;4941769;29;20439;-78
2023/08/17 03:54:37;;;;;;;0.40;0.40;;;17.90;99.90;;;;;;4940793;28;20421;-80
2023/08/17 03:57:04;;;;;;;1.13;1.07;;;18.00;99.90;;;;;;4941623;29;20477;-79
2023/08/17 03:59:31;;;;;;;1.77;1.67;;;18.00;99.90;;;;;;4942655;29;20440;-79
2023/08/17 04:01:58;;;;;;;2.07;1.90;;;18.10;99.90;;;;;;4942356;29;20462;-79
2023/08/17 04:04:25;;;;;;;2.83;1.73;;;18.10;99.90;;;;;;4942012;29;20766;-79
2023/08/17 04:06:53;;;;;;;1.33;1.23;;;18.20;99.90;;;;;;4949142;29;20440;-79
2023/08/17 04:09:19;;;;;;;0.70;0.70;;;18.40;99.90;;;;;;4949152;28;20537;-79
2023/08/17 04:11:46;;;;;;;0.93;0.93;;;18.20;99.90;;;;;;4949086;29;20770;-79
2023/08/17 04:14:14;;;;;;;0.50;0.50;;;18.30;99.90;;;;;;4950418;29;20440;-79
2023/08/17 04:16:43;;;;;;;0.60;0.60;;;18.40;99.90;;;;;;4946749;29;20464;-79
2023/08/17 04:19:10;;;;;;;2.10;2.00;;;18.40;99.90;;;;;;4950664;29;20725;-79
2023/08/17 04:21:37;;;;;;;0.77;0.77;;;18.40;99.90;;;;;;4945574;28;20506;-78
2023/08/17 04:24:05;;;;;;;0.83;0.83;;;18.50;99.90;;;;;;4943400;29;20953;-79
2023/08/17 04:26:32;;;;;;;2.37;2.17;;;18.50;99.90;;;;;;4943341;29;20682;-80
2023/08/17 04:28:59;;;;;;;0.50;0.40;;;18.50;99.90;;;;;;4950895;29;20481;-80
2023/08/17 04:31:26;;;;;;;2.97;0.80;;;18.60;99.90;;;;;;4948439;29;20747;-80
2023/08/17 04:33:53;;;;;;;1.10;1.10;;;18.60;99.90;;;;;;4943248;29;20512;-78
2023/08/17 04:36:20;;;;;;;1.17;1.17;;;18.60;99.90;;;;;;4950751;29;20488;-78
2023/08/17 04:38:47;;;;;;;0.50;0.50;;;18.60;99.90;;;;;;4950063;29;20624;-79
2023/08/17 04:41:14;;;;;;;0.87;0.87;;;18.80;99.90;;;;;;4942540;29;20538;-79
2023/08/17 04:43:42;;;;;;;1.73;1.63;;;18.80;99.90;;;;;;4942269;29;20509;-80
2023/08/17 04:46:09;;;;;;;2.33;2.23;;;18.90;99.90;;;;;;4942017;29;20596;-79
2023/08/17 04:48:37;;;;;;;0.80;0.80;;;18.90;99.90;;;;;;4942487;29;20505;-79
2023/08/17 04:51:05;;;;;;;0.50;0.50;;;18.80;99.90;;;;;;4941220;29;20500;-80
2023/08/17 04:53:32;;;;;;;1.10;1.03;;;18.90;99.90;;;;;;4936858;29;20505;-78
2023/08/17 04:55:59;;;;;;;1.17;1.17;;;19.10;99.90;;;;;;4946961;29;20511;-83
2023/08/17 04:58:26;;;;;;;3.27;3.07;;;19.00;99.90;;;;;;4944867;29;20504;-80
2023/08/17 05:00:53;;;;;;;1.47;1.40;;;19.10;99.90;;;;;;4938980;29;20525;-78
2023/08/17 05:03:20;;;;;;;1.90;1.23;;;19.10;99.90;;;;;;4942463;29;20436;-80
2023/08/17 05:05:59;;;;;;;0.70;0.70;;;19.10;99.90;;;;;;4942906;29;20438;-79
2023/08/17 05:08:26;;;;;;;0.90;0.90;;;19.20;99.90;;;;;;4949070;29;20420;-79
2023/08/17 05:10:54;;;;;;;0.60;0.60;;;19.30;99.90;;;;;;4948529;28;20464;-79
2023/08/17 05:13:21;;;;;;;4.07;3.77;;;19.40;99.90;;;;;;4942787;29;20424;-80
2023/08/17 05:15:48;;;;;;;1.77;1.50;;;19.40;99.90;;;;;;4946566;29;20545;-81
2023/08/17 05:18:15;;;;;;;0.60;0.60;;;19.70;99.90;;;;;;4943564;29;20441;-80
2023/08/17 05:20:42;;;;;;;2.77;2.47;;;19.60;99.90;;;;;;4953633;28;20424;-80
2023/08/17 05:23:09;;;;;;;1.33;1.30;;;19.60;99.90;;;;;;4945541;28;20425;-80
2023/08/17 05:25:36;;;;;;;1.57;1.50;;;19.60;99.90;;;;;;4940933;29;20689;-79
2023/08/17 05:28:04;;;;;;;2.20;2.10;;;19.70;99.90;;;;;;4947993;29;20452;-79
2023/08/17 05:30:32;;;;;;;0.90;0.90;;;19.90;99.90;;;;;;4946408;29;20499;-80
2023/08/17 05:32:59;;;;;;;1.37;1.33;;;20.10;99.90;;;;;;4940417;29;20444;-81
2023/08/17 05:35:26;;;;;;;3.53;1.80;;;20.10;99.90;;;;;;4953102;29;20569;-79
2023/08/17 05:38:01;;;;;;;1.87;1.77;;;20.20;99.90;;;;;;4943915;29;20530;-81
2023/08/17 05:40:32;;;;;;;0.60;0.60;;;20.30;99.90;;;;;;4929929;29;20602;-79
2023/08/17 05:42:59;;;;;;;0.60;0.60;;;20.40;99.90;;;;;;4944812;29;20513;-80
2023/08/17 05:45:27;;;;;;;1.07;1.03;;;20.50;99.90;;;;;;4940578;29;20788;-78
2023/08/17 05:47:53;;;;;;;1.23;1.13;;;20.40;99.90;;;;;;4940983;29;20492;-80
2023/08/17 05:50:21;;;;;;;0.70;0.70;;;20.50;99.90;;;;;;4945338;29;20425;-79
2023/08/17 05:52:47;;;;;;;0.70;0.70;;;20.60;99.90;;;;;;4943096;29;20427;-83
2023/08/17 05:55:15;;;;;;;2.40;2.20;;;20.80;99.90;;;;;;4948157;29;20497;-86
2023/08/17 05:57:42;;;;;;;0.80;0.80;;;21.00;99.90;;;;;;4946058;28;20450;-80
2023/08/17 06:00:12;;;;;;;1.00;1.00;;;21.00;99.90;;;;;;4946342;29;20441;-79
2023/08/17 06:02:40;;;;;;;1.07;1.07;;;21.10;99.90;;;;;;4958596;29;20424;-82
2023/08/17 06:05:08;;;;;;;0.60;0.60;;;21.30;99.90;;;;;;4950362;29;20767;-81
2023/08/17 06:07:36;;;;;;;0.80;0.80;;;21.20;99.90;;;;;;4953863;29;20448;-80
2023/08/17 06:10:05;;;;;;;0.70;0.70;;;21.30;99.90;;;;;;4939476;29;20725;-78
2023/08/17 06:12:33;;;;;;;1.00;1.00;;;21.30;99.90;;;;;;4932302;29;20793;-81
2023/08/17 06:15:03;;;;;;;0.77;0.77;;;21.40;99.90;;;;;;4936337;29;20464;-83
2023/08/17 06:17:30;;;;;;;0.70;0.70;;;21.40;99.90;;;;;;4943985;29;20434;-81
2023/08/17 06:19:57;;;;;;;0.73;0.73;;;21.50;99.90;;;;;;4944338;28;20440;-84
2023/08/17 06:22:24;;;;;;;1.00;1.00;;;21.60;99.90;;;;;;4942734;29;20520;-79
2023/08/17 06:24:51;;;;;;;0.70;0.70;;;21.50;99.90;;;;;;4943608;29;20534;-81
2023/08/17 06:27:18;;;;;;;0.70;0.70;;;21.50;99.90;;;;;;4955062;28;20513;-83
2023/08/17 06:29:45;;;;;;;0.80;0.80;;;21.60;99.90;;;;;;4958082;28;20478;-81
2023/08/17 06:32:12;;;;;;;1.00;1.00;;;21.20;99.90;;;;;;4951591;29;20425;-82
2023/08/17 06:34:43;;;;;;;0.83;0.83;;;21.30;99.90;;;;;;4942078;29;20425;-81
2023/08/17 06:37:10;;;;;;;1.00;1.00;;;21.50;99.90;;;;;;4942351;29;20695;-81
2023/08/17 06:39:37;;;;;;;0.73;0.73;;;21.60;99.90;;;;;;4948035;29;20537;-80
2023/08/17 06:42:05;;;;;;;1.17;1.07;;;21.80;99.90;;;;;;4946728;29;20685;-81
2023/08/17 06:44:37;;;;;;;1.67;1.57;;;21.60;99.90;;;;;;4949693;29;20600;-82
2023/08/17 06:47:08;;;;;;;0.70;0.70;;;21.60;99.90;;;;;;4941853;29;20456;-81
2023/08/17 06:49:35;;;;;;;0.70;0.70;;;21.60;99.90;;;;;;4946757;29;20429;-85
2023/08/17 06:52:03;;;;;;;0.80;0.80;;;21.60;99.90;;;;;;4940057;29;20450;-82
2023/08/17 06:54:32;;;;;;;1.10;1.10;;;21.70;99.90;;;;;;4948548;29;20428;-82
2023/08/17 06:57:00;;;;;;;0.80;0.80;;;21.80;99.90;;;;;;4946256;29;20526;-83
2023/08/17 06:59:27;;;;;;;0.93;0.93;;;21.80;99.90;;;;;;4943668;29;20438;-81
2023/08/17 07:01:57;;;;;;;0.87;0.87;;;22.00;99.90;;;;;;4942200;29;20489;-82
2023/08/17 07:04:24;;;;;;;0.93;0.93;;;22.10;99.90;;;;;;4940537;29;20461;-82
2023/08/17 07:06:54;;;;;;;1.57;1.47;;;22.30;99.90;;;;;;4946086;29;20483;-83
2023/08/17 07:09:21;;;;;;;0.97;0.97;;;22.60;99.10;;;;;;4952758;29;20449;-82
2023/08/17 07:11:50;;;;;;;1.00;1.00;;;22.70;99.30;;;;;;4947270;29;20468;-84
2023/08/17 07:14:18;;;;;;;0.90;0.90;;;22.80;98.90;;;;;;4949433;29;20416;-84
2023/08/17 07:16:48;;;;;;;2.03;1.93;;;22.80;98.00;;;;;;4940582;29;20455;-83
2023/08/17 07:19:16;;;;;;;1.27;1.17;;;23.00;99.00;;;;;;4948422;29;20428;-83
2023/08/17 07:21:51;;;;;;;0.70;0.70;;;23.20;98.90;;;;;;4936851;29;20413;-83
2023/08/17 07:24:19;;;;;;;2.00;1.67;;;23.60;98.90;;;;;;4937084;29;20730;-88
2023/08/17 07:26:46;;;;;;;1.20;1.20;;;24.20;98.20;;;;;;4956144;29;20461;-85
2023/08/17 07:29:13;;;;;;;1.10;1.10;;;24.50;97.90;;;;;;4962055;29;20461;-88
2023/08/17 07:31:41;;;;;;;0.80;0.80;;;25.30;96.90;;;;;;4957832;28;20449;-87
2023/08/17 07:34:10;;;;;;;1.57;1.47;;;25.40;94.90;;;;;;4957758;28;20517;-88
2023/08/17 07:36:38;;;;;;;1.10;1.10;;;25.70;94.20;;;;;;4953235;29;20485;-83
2023/08/17 07:39:05;;;;;;;2.73;1.70;;;26.20;93.70;;;;;;4941094;29;20451;-83
2023/08/17 07:41:33;;;;;;;1.87;1.77;;;27.50;91.40;;;;;;4951718;29;20454;-87
2023/08/17 07:44:00;;;;;;;2.20;2.07;;;29.00;79.60;;;;;;4950311;29;20475;-84
2023/08/17 07:46:27;;;;;;;1.20;1.20;;;29.20;77.50;;;;;;4958140;28;20452;-86
2023/08/17 07:48:54;;;;;;;1.57;1.47;;;28.50;77.10;;;;;;4957882;28;20450;-83
2023/08/17 07:51:21;;;;;;;1.43;1.40;;;28.50;79.90;;;;;;4943528;29;20477;-84
2023/08/17 07:53:49;;;;;;;1.10;1.10;;;28.80;74.10;;;;;;4953697;29;20454;-86
2023/08/17 07:56:16;;;;;;;1.30;1.30;;;28.20;75.20;;;;;;4955053;29;20586;-83
2023/08/17 07:58:43;;;;;;;1.20;1.20;;;29.70;74.80;;;;;;4944390;29;20825;-87
2023/08/17 08:01:10;;;;;;;2.10;2.00;;;29.70;68.70;;;;;;4953053;29;20463;-84
2023/08/17 08:03:37;;;;;;;1.10;1.10;;;30.50;68.70;;;;;;4954232;29;20445;-84
2023/08/17 08:06:05;;;;;;;1.50;1.40;;;30.40;64.90;;;;;;4947727;29;20442;-87
2023/08/17 08:08:42;;;;;;;1.20;1.20;;;29.40;68.10;;;;;;4953132;29;20437;-82
2023/08/17 08:11:09;;;;;;;1.80;1.70;;;29.80;69.50;;;;;;4950610;29;20441;-82
2023/08/17 08:13:37;;;;;;;2.93;2.80;;;30.50;70.80;;;;;;4954327;29;20494;-84
2023/08/17 08:16:04;;;;;;;1.53;1.43;;;31.60;67.60;;;;;;4968045;28;20612;-85
2023/08/17 08:18:31;;;;;;;1.17;1.17;;;32.00;62.50;;;;;;4964631;28;20475;-85
2023/08/17 08:20:58;;;;;;;1.90;1.80;;;31.90;65.60;;;;;;4957004;29;20466;-85
2023/08/17 08:23:26;;;;;;;3.47;1.60;;;31.90;58.90;;;;;;4958531;29;20474;-84
2023/08/17 08:25:53;;;;;;;1.20;1.20;;;30.80;62.30;;;;;;4964717;28;20434;-85
2023/08/17 08:28:20;;;;;;;1.50;1.40;;;31.90;58.20;;;;;;4954604;29;20463;-82
2023/08/17 08:30:47;;;;;;;2.10;1.70;;;30.70;60.80;;;;;;4948510;29;20504;-85
2023/08/17 08:33:15;;;;;;;2.00;1.90;;;30.50;62.80;;;;;;4943799;29;20456;-84
2023/08/17 08:35:41;;;;;;;1.77;1.70;;;31.60;60.00;;;;;;4947308;29;20438;-83
2023/08/17 08:38:09;;;;;;;1.10;1.10;;;31.80;59.80;;;;;;4946519;29;20521;-84
2023/08/17 08:40:37;;;;;;;1.30;1.30;;;32.10;57.40;;;;;;4944456;29;20485;-84
2023/08/17 08:43:04;;;;;;;1.00;1.00;;;32.00;57.60;;;;;;4954781;28;20455;-83
2023/08/17 08:45:32;;;;;;;1.30;1.30;;;32.50;58.50;;;;;;4952297;29;20438;-86
2023/08/17 08:48:01;;;;;;;1.57;1.47;;;32.90;55.70;;;;;;4945649;28;20777;-83
2023/08/17 08:50:31;;;;;;;1.83;1.73;;;33.60;54.50;;;;;;4955811;29;20441;-84
2023/08/17 08:53:04;;;;;;;1.33;1.33;;;33.50;55.30;;;;;;4954305;29;20485;-83
2023/08/17 08:55:36;;;;;;;2.20;2.10;;;33.20;55.90;;;;;;4945237;29;20469;-84
2023/08/17 08:58:16;;;;;;;2.13;2.03;;;32.50;54.50;;;;;;4944344;29;20454;-85
2023/08/17 09:00:47;;;;;;;3.80;3.43;;;31.40;60.10;;;;;;4951387;29;20485;-83
2023/08/17 09:03:20;;;;;;;1.40;1.30;;;31.30;57.50;;;;;;4943411;29;20434;-85
2023/08/17 09:05:48;;;;;;;1.40;1.30;;;32.10;56.10;;;;;;4961998;29;20492;-84
2023/08/17 09:08:24;;;;;;;1.50;1.40;;;32.10;56.10;;;;;;4938638;29;20490;-83
2023/08/17 09:10:51;;;;;;;1.67;1.57;;;31.50;57.60;;;;;;4948098;29;20516;-82
2023/08/17 09:13:18;;;;;;;2.17;2.07;;;31.90;57.50;;;;;;4941954;29;20447;-85
2023/08/17 09:15:45;;;;;;;1.13;1.13;;;31.50;58.00;;;;;;4945338;29;20500;-84
2023/08/17 09:18:12;;;;;;;1.97;1.87;;;31.50;59.30;;;;;;4956550;29;20516;-83
2023/08/17 09:20:45;;;;;;;1.57;1.47;;;31.10;58.80;;;;;;4943397;29;20450;-84
2023/08/17 09:23:20;;;;;;;1.70;1.60;;;31.00;58.50;;;;;;4940796;29;20450;-85
2023/08/17 09:25:49;;;;;;;1.00;1.00;;;30.40;61.20;;;;;;4942508;29;20918;-85
2023/08/17 09:28:20;;;;;;;1.43;1.43;;;30.30;61.80;;;;;;4942722;29;20462;-82
2023/08/17 09:31:06;;;;;;;1.70;1.60;;;30.00;64.90;;;;;;4944439;29;20480;-84
2023/08/17 09:33:33;;;;;;;2.37;2.17;;;30.30;62.70;;;;;;4949959;28;20435;-83
2023/08/17 09:36:01;;;;;;;1.00;1.00;;;29.00;62.90;;;;;;4943124;29;20462;-87
2023/08/17 09:38:28;;;;;;;1.20;1.20;;;28.80;65.30;;;;;;4940548;29;20450;-84
2023/08/17 09:40:57;;;;;;;1.80;1.70;;;29.40;68.40;;;;;;4935848;29;20464;-84
2023/08/17 09:43:28;;;;;;;1.50;1.40;;;29.80;64.30;;;;;;4945413;28;20446;-84
2023/08/17 09:45:56;;;;;;;1.10;1.10;;;29.70;62.90;;;;;;4948967;29;20405;-83
2023/08/17 09:48:25;;;;;;;1.10;1.10;;;30.00;65.20;;;;;;4940927;29;20635;-85
2023/08/17 09:50:55;;;;;;;1.00;1.00;;;29.50;66.10;;;;;;4955178;29;20698;-85
2023/08/17 09:53:25;;;;;;;1.00;1.00;;;29.50;64.30;;;;;;4943089;29;20477;-86
2023/08/17 09:55:55;;;;;;;1.20;1.20;;;29.80;63.50;;;;;;4942059;29;20514;-85
2023/08/17 09:58:22;;;;;;;1.50;1.40;;;30.20;62.90;;;;;;4940678;29;20429;-84
2023/08/17 10:00:50;;;;;;;1.27;1.27;;;29.90;62.90;;;;;;4936883;29;20500;-82
2023/08/17 10:03:19;;;;;;;1.80;1.70;;;29.40;64.60;;;;;;4949658;29;20450;-83
2023/08/17 10:05:59;;;;;;;1.00;1.00;;;29.20;65.60;;;;;;4931095;29;20459;-82
2023/08/17 10:08:30;;;;;;;2.03;1.93;;;28.90;66.00;;;;;;4935860;29;20440;-83
2023/08/17 10:10:59;;;;;;;1.63;1.53;;;28.80;67.00;;;;;;4946201;29;20857;-83
2023/08/17 10:13:39;;;;;;;1.00;1.00;;;29.10;67.60;;;;;;4936774;29;20428;-84
2023/08/17 10:16:31;;;;;;;1.20;1.20;;;29.40;67.80;;;;;;4960745;28;20461;-86
2023/08/17 10:19:22;;;;;;;1.63;1.57;;;29.20;66.80;;;;;;4940532;29;20462;-83
2023/08/17 10:22:06;;;;;;;3.53;1.83;;;29.30;68.10;;;;;;4952683;29;20472;-85
2023/08/17 10:24:36;;;;;;;1.17;1.17;;;29.20;66.30;;;;;;4948485;29;20424;-88
2023/08/17 10:27:05;;;;;;;2.30;2.20;;;28.70;66.30;;;;;;4935608;29;20450;-85
2023/08/17 10:29:33;;;;;;;1.10;1.10;;;28.40;65.60;;;;;;4941559;29;20540;-86
2023/08/17 10:32:01;;;;;;;2.53;2.33;;;28.30;68.10;;;;;;4945537;29;20614;-84
2023/08/17 10:34:29;;;;;;;1.27;1.23;;;28.40;68.70;;;;;;4945282;28;20427;-85
2023/08/17 10:36:57;;;;;;;1.20;1.20;;;28.60;69.60;;;;;;4942346;29;20488;-83
2023/08/17 10:39:27;;;;;;;1.23;1.20;;;28.70;67.10;;;;;;4939746;29;20544;-81
2023/08/17 10:41:58;;;;;;;2.23;2.13;;;28.80;67.60;;;;;;4942876;29;20454;-86
2023/08/17 10:44:46;;;;;;;1.60;1.50;;;29.00;66.10;;;;;;4947456;29;20707;-83
2023/08/17 10:47:20;;;;;;;2.03;1.93;;;28.70;65.80;;;;;;4941176;29;20829;-82
2023/08/17 10:50:19;;;;;;;0.93;0.93;;;28.20;66.60;;;;;;4949557;29;20517;-81
2023/08/17 10:52:49;;;;;;;2.20;2.10;;;28.20;68.50;;;;;;4943863;29;20478;-83
2023/08/17 10:55:16;;;;;;;1.40;1.30;;;28.40;67.50;;;;;;4945306;29;20544;-83
2023/08/17 10:57:44;;;;;;;1.50;1.40;;;28.40;66.50;;;;;;4944393;29;20476;-81
2023/08/17 11:00:31;;;;;;;0.93;0.93;;;28.50;67.70;;;;;;4953204;29;20481;-82
2023/08/17 11:03:01;;;;;;;1.30;1.30;;;28.70;66.60;;;;;;4937021;29;20736;-81
2023/08/17 11:05:38;;;;;;;2.70;2.60;;;28.90;66.50;;;;;;4940327;29;20577;-84
2023/08/17 11:08:08;;;;;;;1.50;1.40;;;28.80;64.60;;;;;;4937462;29;20738;-81
2023/08/17 11:10:37;;;;;;;3.90;2.23;;;28.90;65.20;;;;;;4945689;29;20479;-83
2023/08/17 11:13:06;;;;;;;1.10;1.10;;;29.00;67.60;;;;;;4935812;29;20638;-83
2023/08/17 11:15:42;;;;;;;1.27;1.27;;;29.30;65.30;;;;;;4938356;29;20421;-82
2023/08/17 11:18:13;;;;;;;1.20;1.20;;;29.20;65.50;;;;;;4939002;29;20474;-82
2023/08/17 11:20:41;;;;;;;0.87;0.87;;;29.30;66.00;;;;;;4939124;29;20809;-83
2023/08/17 11:23:09;;;;;;;1.67;1.57;;;29.50;65.20;;;;;;4941753;29;20607;-85
2023/08/17 11:25:37;;;;;;;2.67;2.57;;;29.40;66.50;;;;;;4939662;29;20533;-83
2023/08/17 11:28:08;;;;;;;1.47;1.40;;;29.40;66.80;;;;;;4944116;28;20469;-82
2023/08/17 11:30:38;;;;;;;2.10;1.93;;;29.50;67.10;;;;;;4943326;29;20478;-83
2023/08/17 11:33:07;;;;;;;1.80;1.70;;;29.70;63.80;;;;;;4934718;29;20424;-82
2023/08/17 11:35:34;;;;;;;1.13;1.13;;;29.70;65.00;;;;;;4939539;29;20434;-85
2023/08/17 11:38:03;;;;;;;1.27;1.27;;;28.90;66.80;;;;;;4943810;29;20912;-83
2023/08/17 11:40:37;;;;;;;1.80;1.70;;;28.80;69.00;;;;;;4950533;29;20489;-88
2023/08/17 11:43:04;;;;;;;1.30;1.30;;;28.70;67.00;;;;;;4939306;29;20464;-87
2023/08/17 11:45:34;;;;;;;1.33;1.33;;;28.80;68.00;;;;;;4948939;29;20420;-83
2023/08/17 11:48:01;;;;;;;0.90;0.90;;;28.70;67.00;;;;;;4939415;29;20454;-82
2023/08/17 11:50:28;;;;;;;1.47;1.47;;;28.50;68.90;;;;;;4939588;29;20545;-82
2023/08/17 11:52:59;;;;;;;1.73;1.63;;;28.70;67.90;;;;;;4946612;29;20766;-82
2023/08/17 11:55:27;;;;;;;1.13;1.13;;;28.50;67.00;;;;;;4939037;29;20509;-83
2023/08/17 11:57:54;;;;;;;1.20;1.20;;;28.80;67.20;;;;;;4941400;28;20488;-82
2023/08/17 12:00:22;;;;;;;0.80;0.80;;;28.80;67.10;;;;;;4940740;29;20541;-82
2023/08/17 12:02:53;;;;;;;0.90;0.90;;;28.80;66.10;;;;;;4944688;29;20543;-87
2023/08/17 12:05:24;;;;;;;1.20;1.20;;;28.70;67.30;;;;;;4953090;28;20452;-83
2023/08/17 12:07:55;;;;;;;1.00;1.00;;;29.10;67.10;;;;;;4945931;29;20446;-84
2023/08/17 12:10:24;;;;;;;1.57;1.50;;;29.00;67.00;;;;;;5020660;23;20943;-83
2023/08/17 12:12:52;;;;;;;1.00;1.00;;;29.10;66.70;;;;;;4978637;28;20452;-86
2023/08/17 12:15:19;;;;;;;0.90;0.90;;;29.20;66.70;;;;;;4964099;29;20460;-84
2023/08/17 12:17:47;;;;;;;1.57;1.47;;;29.20;67.30;;;;;;4968759;28;20453;-83
2023/08/17 12:20:20;;;;;;;1.47;1.37;;;29.20;67.00;;;;;;4955808;28;20467;-83
2023/08/17 12:22:47;;;;;;;1.43;1.33;;;29.30;66.50;;;;;;4958555;28;20480;-82
2023/08/17 12:25:15;;;;;;;1.07;1.07;;;29.60;65.60;;;;;;4971923;28;20682;-85
2023/08/17 12:27:42;;;;;;;2.30;2.20;;;29.50;66.00;;;;;;4964333;28;20702;-86
2023/08/17 12:30:23;;;;;;;2.03;1.93;;;29.30;64.50;;;;;;4964148;28;20500;-84
2023/08/17 12:32:55;;;;;;;1.40;1.30;;;29.20;66.40;;;;;;4964291;28;20434;-92
2023/08/17 12:35:25;;;;;;;1.00;1.00;;;29.30;64.80;;;;;;4966347;28;20684;-85
2023/08/17 12:37:53;;;;;;;2.33;2.13;;;29.30;64.60;;;;;;4961298;28;20485;-83
2023/08/17 12:40:21;;;;;;;1.20;1.20;;;29.40;66.00;;;;;;4963881;28;20713;-81
2023/08/17 12:42:49;;;;;;;1.67;1.57;;;29.50;66.00;;;;;;4961064;28;20473;-83
2023/08/17 12:45:16;;;;;;;1.47;1.27;;;29.70;64.80;;;;;;4967095;28;20448;-84
2023/08/17 12:47:43;;;;;;;1.63;1.53;;;29.90;65.00;;;;;;4961903;28;20453;-84
2023/08/17 12:50:11;;;;;;;1.10;1.10;;;29.70;64.90;;;;;;4968795;28;20642;-81
2023/08/17 12:52:38;;;;;;;1.00;1.00;;;29.70;64.20;;;;;;4964339;28;20449;-89
2023/08/17 12:55:05;;;;;;;14.70;3.10;;;29.10;64.70;;;;;;4963868;29;20438;-84
2023/08/17 12:57:33;;;;;;;1.67;1.57;;;29.10;65.10;;;;;;4967820;28;20478;-82